sensor_id;sensor_type;location;lat;lon;timestamp;pressure;altitude;pressure_sealevel;temperature;humidity
74075;BME280;62428;51.412;5.432;2023-11-19T00:00:05;100800.69;;;11.56;100.00
74075;BME280;62428;51.412;5.432;2023-11-19T00:02:31;100789.31;;;11.59;100.00
74075;BME280;62428;51.412;5.432;2023-11-19T00:04:57;100781.44;;;11.62;100.00
74075;BME280;62428;51.412;5.432;2023-11-19T00:07:23;100782.47;;;11.66;100.00
74075;BME280;62428;51.412;5.432;2023-11-19T00:09:48;100787.53;;;11.68;100.00
74075;BME280;62428;51.412;5.432;2023-11-19T00:12:14;100780.28;;;11.68;100.00
74075;BME280;62428;51.412;5.432;2023-11-19T00:14:39;100778.38;;;11.69;100.00
74075;BME280;62428;51.412;5.432;2023-11-19T00:17:06;100769.19;;;11.70;100.00
74075;BME280;62428;51.412;5.432;2023-11-19T00:19:31;100767.31;;;11.70;100.00
74075;BME280;62428;51.412;5.432;2023-11-19T00:21:56;100763.19;;;11.73;100.00
74075;BME280;62428;51.412;5.432;2023-11-19T00:24:22;100769.09;;;11.75;100.00
74075;BME280;62428;51.412;5.432;2023-11-19T00:26:47;100750.53;;;11.73;100.00
74075;BME280;62428;51.412;5.432;2023-11-19T00:29:12;100745.16;;;11.73;100.00
74075;BME280;62428;51.412;5.432;2023-11-19T00:31:39;100736.78;;;11.75;100.00
74075;BME280;62428;51.412;5.432;2023-11-19T00:34:04;100733.31;;;11.74;100.00
74075;BME280;62428;51.412;5.432;2023-11-19T00:36:31;100720.13;;;11.73;100.00
74075;BME280;62428;51.412;5.432;2023-11-19T00:38:56;100734.72;;;11.72;100.00
74075;BME280;62428;51.412;5.432;2023-11-19T00:41:22;100733.31;;;11.74;100.00
74075;BME280;62428;51.412;5.432;2023-11-19T00:43:47;100737.06;;;11.73;100.00
74075;BME280;62428;51.412;5.432;2023-11-19T00:46:14;100736.28;;;11.73;100.00
74075;BME280;62428;51.412;5.432;2023-11-19T00:48:40;100729.00;;;11.73;100.00
74075;BME280;62428;51.412;5.432;2023-11-19T00:51:05;100733.00;;;11.76;100.00
74075;BME280;62428;51.412;5.432;2023-11-19T00:53:31;100741.88;;;11.77;100.00
74075;BME280;62428;51.412;5.432;2023-11-19T00:55:57;100737.59;;;11.76;100.00
74075;BME280;62428;51.412;5.432;2023-11-19T00:58:22;100744.25;;;11.78;100.00
74075;BME280;62428;51.412;5.432;2023-11-19T01:00:48;100742.56;;;11.82;100.00
74075;BME280;62428;51.412;5.432;2023-11-19T01:03:13;100744.94;;;11.84;100.00
74075;BME280;62428;51.412;5.432;2023-11-19T01:05:41;100733.59;;;11.87;100.00
74075;BME280;62428;51.412;5.432;2023-11-19T01:08:06;100738.16;;;11.86;100.00
74075;BME280;62428;51.412;5.432;2023-11-19T01:10:32;100744.66;;;11.85;100.00
74075;BME280;62428;51.412;5.432;2023-11-19T01:12:57;100741.97;;;11.85;100.00
74075;BME280;62428;51.412;5.432;2023-11-19T01:15:23;100743.03;;;11.84;100.00
74075;BME280;62428;51.412;5.432;2023-11-19T01:17:48;100735.47;;;11.86;100.00
74075;BME280;62428;51.412;5.432;2023-11-19T01:20:14;100740.84;;;11.86;100.00
74075;BME280;62428;51.412;5.432;2023-11-19T01:22:39;100753.72;;;11.89;100.00
74075;BME280;62428;51.412;5.432;2023-11-19T01:25:06;100736.78;;;11.89;100.00
74075;BME280;62428;51.412;5.432;2023-11-19T01:27:31;100728.69;;;11.89;100.00
74075;BME280;62428;51.412;5.432;2023-11-19T01:29:57;100715.81;;;11.86;100.00
74075;BME280;62428;51.412;5.432;2023-11-19T01:32:22;100718.22;;;11.87;100.00
74075;BME280;62428;51.412;5.432;2023-11-19T01:34:49;100715.03;;;11.85;100.00
74075;BME280;62428;51.412;5.432;2023-11-19T01:37:14;100706.47;;;11.83;100.00
74075;BME280;62428;51.412;5.432;2023-11-19T01:39:40;100702.19;;;11.82;100.00
74075;BME280;62428;51.412;5.432;2023-11-19T01:42:05;100699.78;;;11.81;100.00
74075;BME280;62428;51.412;5.432;2023-11-19T01:44:31;100708.38;;;11.83;100.00
74075;BME280;62428;51.412;5.432;2023-11-19T01:46:57;100719.44;;;11.81;100.00
74075;BME280;62428;51.412;5.432;2023-11-19T01:49:23;100706.59;;;11.78;100.00
74075;BME280;62428;51.412;5.432;2023-11-19T01:51:49;100703.09;;;11.78;100.00
74075;BME280;62428;51.412;5.432;2023-11-19T01:54:15;100706.88;;;11.77;100.00
74075;BME280;62428;51.412;5.432;2023-11-19T01:56:41;100706.59;;;11.78;100.00
74075;BME280;62428;51.412;5.432;2023-11-19T01:59:07;100706.28;;;11.80;100.00
74075;BME280;62428;51.412;5.432;2023-11-19T02:01:35;100710.88;;;11.79;100.00
74075;BME280;62428;51.412;5.432;2023-11-19T02:04:05;100724.63;;;11.78;100.00
74075;BME280;62428;51.412;5.432;2023-11-19T02:06:32;100734.28;;;11.79;100.00
74075;BME280;62428;51.412;5.432;2023-11-19T02:08:58;100726.84;;;11.76;100.00
74075;BME280;62428;51.412;5.432;2023-11-19T02:11:24;100722.84;;;11.73;100.00
74075;BME280;62428;51.412;5.432;2023-11-19T02:13:54;100719.66;;;11.71;100.00
74075;BME280;62428;51.412;5.432;2023-11-19T02:16:20;100708.41;;;11.69;100.00
74075;BME280;62428;51.412;5.432;2023-11-19T02:18:45;100712.78;;;11.65;100.00
74075;BME280;62428;51.412;5.432;2023-11-19T02:21:10;100718.47;;;11.63;100.00
74075;BME280;62428;51.412;5.432;2023-11-19T02:23:36;100716.56;;;11.64;100.00
74075;BME280;62428;51.412;5.432;2023-11-19T02:26:17;100718.19;;;11.65;100.00
74075;BME280;62428;51.412;5.432;2023-11-19T02:28:43;100705.81;;;11.64;100.00
74075;BME280;62428;51.412;5.432;2023-11-19T02:31:09;100696.75;;;11.60;100.00
74075;BME280;62428;51.412;5.432;2023-11-19T02:33:36;100700.03;;;11.57;100.00
74075;BME280;62428;51.412;5.432;2023-11-19T02:36:03;100695.25;;;11.53;100.00
74075;BME280;62428;51.412;5.432;2023-11-19T02:38:29;100703.31;;;11.53;100.00
74075;BME280;62428;51.412;5.432;2023-11-19T02:40:56;100709.81;;;11.52;100.00
74075;BME280;62428;51.412;5.432;2023-11-19T02:43:21;100695.09;;;11.50;100.00
74075;BME280;62428;51.412;5.432;2023-11-19T02:45:46;100687.31;;;11.48;100.00
74075;BME280;62428;51.412;5.432;2023-11-19T02:48:12;100679.25;;;11.48;100.00
74075;BME280;62428;51.412;5.432;2023-11-19T02:50:39;100683.00;;;11.47;100.00
74075;BME280;62428;51.412;5.432;2023-11-19T02:53:04;100687.31;;;11.48;100.00
74075;BME280;62428;51.412;5.432;2023-11-19T02:55:31;100682.41;;;11.50;100.00
74075;BME280;62428;51.412;5.432;2023-11-19T02:58:03;100703.75;;;11.47;100.00
74075;BME280;62428;51.412;5.432;2023-11-19T03:00:34;100700.75;;;11.48;100.00
74075;BME280;62428;51.412;5.432;2023-11-19T03:03:02;100691.19;;;11.42;100.00
74075;BME280;62428;51.412;5.432;2023-11-19T03:05:42;100680.22;;;11.39;100.00
74075;BME280;62428;51.412;5.432;2023-11-19T03:08:09;100687.81;;;11.37;100.00
74075;BME280;62428;51.412;5.432;2023-11-19T03:10:35;100694.28;;;11.35;100.00
74075;BME280;62428;51.412;5.432;2023-11-19T03:13:01;100689.22;;;11.34;100.00
74075;BME280;62428;51.412;5.432;2023-11-19T03:15:28;100692.19;;;11.32;100.00
74075;BME280;62428;51.412;5.432;2023-11-19T03:17:53;100703.75;;;11.33;100.00
74075;BME280;62428;51.412;5.432;2023-11-19T03:20:19;100698.38;;;11.33;100.00
74075;BME280;62428;51.412;5.432;2023-11-19T03:22:46;100693.59;;;11.30;100.00
74075;BME280;62428;51.412;5.432;2023-11-19T03:25:11;100698.47;;;11.28;100.00
74075;BME280;62428;51.412;5.432;2023-11-19T03:27:37;100702.06;;;11.23;100.00
74075;BME280;62428;51.412;5.432;2023-11-19T03:30:05;100704.25;;;11.21;100.00
74075;BME280;62428;51.412;5.432;2023-11-19T03:32:32;100702.66;;;11.20;100.00
74075;BME280;62428;51.412;5.432;2023-11-19T03:34:57;100698.69;;;11.18;100.00
74075;BME280;62428;51.412;5.432;2023-11-19T03:37:23;100695.50;;;11.15;100.00
74075;BME280;62428;51.412;5.432;2023-11-19T03:39:49;100696.28;;;11.16;100.00
74075;BME280;62428;51.412;5.432;2023-11-19T03:42:14;100698.97;;;11.16;100.00
74075;BME280;62428;51.412;5.432;2023-11-19T03:44:40;100688.41;;;11.20;100.00
74075;BME280;62428;51.412;5.432;2023-11-19T03:47:05;100693.78;;;11.20;100.00
74075;BME280;62428;51.412;5.432;2023-11-19T03:49:31;100701.06;;;11.19;100.00
74075;BME280;62428;51.412;5.432;2023-11-19T03:51:56;100699.16;;;11.20;100.00
74075;BME280;62428;51.412;5.432;2023-11-19T03:54:21;100702.66;;;11.20;100.00
74075;BME280;62428;51.412;5.432;2023-11-19T03:56:48;100703.75;;;11.19;100.00
74075;BME280;62428;51.412;5.432;2023-11-19T03:59:13;100706.75;;;11.18;100.00
74075;BME280;62428;51.412;5.432;2023-11-19T04:01:40;100716.19;;;11.15;100.00
74075;BME280;62428;51.412;5.432;2023-11-19T04:04:05;100721.56;;;11.15;100.00
74075;BME280;62428;51.412;5.432;2023-11-19T04:06:31;100717.00;;;11.15;100.00
74075;BME280;62428;51.412;5.432;2023-11-19T04:08:56;100718.09;;;11.14;100.00
74075;BME280;62428;51.412;5.432;2023-11-19T04:11:22;100709.22;;;11.14;100.00
74075;BME280;62428;51.412;5.432;2023-11-19T04:13:47;100700.66;;;11.12;100.00
74075;BME280;62428;51.412;5.432;2023-11-19T04:16:12;100715.69;;;11.13;100.00
74075;BME280;62428;51.412;5.432;2023-11-19T04:18:39;100712.22;;;11.12;100.00
74075;BME280;62428;51.412;5.432;2023-11-19T04:21:07;100713.81;;;11.13;100.00
74075;BME280;62428;51.412;5.432;2023-11-19T04:23:33;100717.28;;;11.14;100.00
74075;BME280;62428;51.412;5.432;2023-11-19T04:25:58;100735.81;;;11.15;100.00
74075;BME280;62428;51.412;5.432;2023-11-19T04:28:26;100723.38;;;11.20;100.00
74075;BME280;62428;51.412;5.432;2023-11-19T04:30:52;100716.09;;;11.20;100.00
74075;BME280;62428;51.412;5.432;2023-11-19T04:33:17;100734.63;;;11.22;100.00
74075;BME280;62428;51.412;5.432;2023-11-19T04:35:43;100739.50;;;11.20;100.00
74075;BME280;62428;51.412;5.432;2023-11-19T04:38:08;100741.69;;;11.18;100.00
74075;BME280;62428;51.412;5.432;2023-11-19T04:40:33;100739.31;;;11.16;100.00
74075;BME280;62428;51.412;5.432;2023-11-19T04:42:59;100727.25;;;11.13;100.00
74075;BME280;62428;51.412;5.432;2023-11-19T04:45:24;100723.75;;;11.13;100.00
74075;BME280;62428;51.412;5.432;2023-11-19T04:47:49;100711.13;;;11.13;100.00
74075;BME280;62428;51.412;5.432;2023-11-19T04:50:15;100712.22;;;11.12;100.00
74075;BME280;62428;51.412;5.432;2023-11-19T04:52:40;100717.59;;;11.12;100.00
74075;BME280;62428;51.412;5.432;2023-11-19T04:55:06;100728.06;;;11.14;100.00
74075;BME280;62428;51.412;5.432;2023-11-19T04:57:31;100722.97;;;11.12;100.00
74075;BME280;62428;51.412;5.432;2023-11-19T04:59:58;100722.19;;;11.12;100.00
74075;BME280;62428;51.412;5.432;2023-11-19T05:02:23;100728.34;;;11.12;100.00
74075;BME280;62428;51.412;5.432;2023-11-19T05:04:48;100744.47;;;11.12;100.00
74075;BME280;62428;51.412;5.432;2023-11-19T05:07:14;100733.22;;;11.10;100.00
74075;BME280;62428;51.412;5.432;2023-11-19T05:09:39;100734.31;;;11.09;100.00
74075;BME280;62428;51.412;5.432;2023-11-19T05:12:05;100740.78;;;11.08;100.00
74075;BME280;62428;51.412;5.432;2023-11-19T05:14:33;100743.78;;;11.07;100.00
74075;BME280;62428;51.412;5.432;2023-11-19T05:16:59;100737.09;;;11.04;100.00
74075;BME280;62428;51.412;5.432;2023-11-19T05:19:24;100738.19;;;11.03;100.00
74075;BME280;62428;51.412;5.432;2023-11-19T05:21:49;100741.66;;;11.04;100.00
74075;BME280;62428;51.412;5.432;2023-11-19T05:24:17;100731.22;;;11.02;100.00
74075;BME280;62428;51.412;5.432;2023-11-19T05:26:42;100732.31;;;11.01;100.00
74075;BME280;62428;51.412;5.432;2023-11-19T05:29:08;100745.47;;;11.03;100.00
74075;BME280;62428;51.412;5.432;2023-11-19T05:31:33;100736.59;;;11.02;100.00
74075;BME280;62428;51.412;5.432;2023-11-19T05:33:59;100758.59;;;11.04;100.00
74075;BME280;62428;51.412;5.432;2023-11-19T05:36:24;100749.53;;;11.00;100.00
74075;BME280;62428;51.412;5.432;2023-11-19T05:38:49;100735.59;;;10.98;100.00
74075;BME280;62428;51.412;5.432;2023-11-19T05:41:15;100746.94;;;10.95;100.00
74075;BME280;62428;51.412;5.432;2023-11-19T05:43:40;100749.63;;;10.95;100.00
74075;BME280;62428;51.412;5.432;2023-11-19T05:46:06;100742.16;;;10.92;100.00
74075;BME280;62428;51.412;5.432;2023-11-19T05:48:32;100747.03;;;10.90;100.00
74075;BME280;62428;51.412;5.432;2023-11-19T05:50:58;100750.81;;;10.89;100.00
74075;BME280;62428;51.412;5.432;2023-11-19T05:53:23;100748.41;;;10.87;100.00
74075;BME280;62428;51.412;5.432;2023-11-19T05:55:49;100754.56;;;10.88;100.00
74075;BME280;62428;51.412;5.432;2023-11-19T05:58:24;100759.16;;;10.87;100.00
74075;BME280;62428;51.412;5.432;2023-11-19T06:00:50;100767.00;;;10.84;100.00
74075;BME280;62428;51.412;5.432;2023-11-19T06:03:16;100743.66;;;10.84;100.00
74075;BME280;62428;51.412;5.432;2023-11-19T06:05:44;100752.78;;;10.83;100.00
74075;BME280;62428;51.412;5.432;2023-11-19T06:08:09;100760.63;;;10.80;100.00
74075;BME280;62428;51.412;5.432;2023-11-19T06:10:35;100759.63;;;10.75;100.00
74075;BME280;62428;51.412;5.432;2023-11-19T06:13:00;100764.50;;;10.73;100.00
74075;BME280;62428;51.412;5.432;2023-11-19T06:15:30;100765.09;;;10.70;100.00
74075;BME280;62428;51.412;5.432;2023-11-19T06:17:55;100761.63;;;10.70;100.00
74075;BME280;62428;51.412;5.432;2023-11-19T06:20:21;100761.41;;;10.66;100.00
74075;BME280;62428;51.412;5.432;2023-11-19T06:22:47;100756.03;;;10.66;100.00
74075;BME280;62428;51.412;5.432;2023-11-19T06:25:12;100753.34;;;10.66;100.00
74075;BME280;62428;51.412;5.432;2023-11-19T06:27:40;100758.22;;;10.64;100.00
74075;BME280;62428;51.412;5.432;2023-11-19T06:30:06;100761.97;;;10.63;100.00
74075;BME280;62428;51.412;5.432;2023-11-19T06:32:32;100762.28;;;10.62;100.00
74075;BME280;62428;51.412;5.432;2023-11-19T06:34:57;100771.72;;;10.59;100.00
74075;BME280;62428;51.412;5.432;2023-11-19T06:37:23;100768.75;;;10.61;100.00
74075;BME280;62428;51.412;5.432;2023-11-19T06:39:48;100766.66;;;10.57;100.00
74075;BME280;62428;51.412;5.432;2023-11-19T06:42:14;100753.22;;;10.57;100.00
74075;BME280;62428;51.412;5.432;2023-11-19T06:44:39;100753.50;;;10.56;100.00
74075;BME280;62428;51.412;5.432;2023-11-19T06:47:04;100759.66;;;10.56;100.00
74075;BME280;62428;51.412;5.432;2023-11-19T06:49:30;100761.84;;;10.54;100.00
74075;BME280;62428;51.412;5.432;2023-11-19T06:51:55;100766.72;;;10.52;100.00
74075;BME280;62428;51.412;5.432;2023-11-19T06:54:21;100767.22;;;10.54;100.00
74075;BME280;62428;51.412;5.432;2023-11-19T06:56:48;100768.63;;;10.52;100.00
74075;BME280;62428;51.412;5.432;2023-11-19T06:59:13;100767.00;;;10.51;100.00
74075;BME280;62428;51.412;5.432;2023-11-19T07:01:39;100770.78;;;10.50;100.00
74075;BME280;62428;51.412;5.432;2023-11-19T07:04:04;100774.28;;;10.50;100.00
74075;BME280;62428;51.412;5.432;2023-11-19T07:06:35;100778.03;;;10.49;100.00
74075;BME280;62428;51.412;5.432;2023-11-19T07:09:00;100787.19;;;10.48;100.00
74075;BME280;62428;51.412;5.432;2023-11-19T07:11:35;100789.66;;;10.45;100.00
74075;BME280;62428;51.412;5.432;2023-11-19T07:14:00;100798.22;;;10.47;100.00
74075;BME280;62428;51.412;5.432;2023-11-19T07:16:25;100792.34;;;10.45;100.00
74075;BME280;62428;51.412;5.432;2023-11-19T07:18:51;100792.94;;;10.42;100.00
74075;BME280;62428;51.412;5.432;2023-11-19T07:21:16;100794.31;;;10.39;100.00
74075;BME280;62428;51.412;5.432;2023-11-19T07:23:42;100811.72;;;10.42;100.00
74075;BME280;62428;51.412;5.432;2023-11-19T07:26:07;100825.09;;;10.47;100.00
74075;BME280;62428;51.412;5.432;2023-11-19T07:28:36;100810.06;;;10.46;100.00
74075;BME280;62428;51.412;5.432;2023-11-19T07:31:01;100813.78;;;10.50;100.00
74075;BME280;62428;51.412;5.432;2023-11-19T07:33:27;100820.22;;;10.49;100.00
74075;BME280;62428;51.412;5.432;2023-11-19T07:35:52;100823.69;;;10.49;100.00
74075;BME280;62428;51.412;5.432;2023-11-19T07:38:17;100827.72;;;10.52;100.00
74075;BME280;62428;51.412;5.432;2023-11-19T07:40:43;100821.56;;;10.51;100.00
74075;BME280;62428;51.412;5.432;2023-11-19T07:43:08;100817.75;;;10.52;100.00
74075;BME280;62428;51.412;5.432;2023-11-19T07:45:34;100817.75;;;10.52;100.00
74075;BME280;62428;51.412;5.432;2023-11-19T07:47:59;100817.25;;;10.50;100.00
74075;BME280;62428;51.412;5.432;2023-11-19T07:50:26;100827.22;;;10.50;100.00
74075;BME280;62428;51.412;5.432;2023-11-19T07:52:52;100819.44;;;10.48;100.00
74075;BME280;62428;51.412;5.432;2023-11-19T07:55:17;100812.97;;;10.49;100.00
74075;BME280;62428;51.412;5.432;2023-11-19T07:57:42;100808.69;;;10.48;100.00
74075;BME280;62428;51.412;5.432;2023-11-19T08:00:08;100815.66;;;10.49;100.00
74075;BME280;62428;51.412;5.432;2023-11-19T08:02:37;100809.19;;;10.50;100.00
74075;BME280;62428;51.412;5.432;2023-11-19T08:05:03;100819.66;;;10.52;100.00
74075;BME280;62428;51.412;5.432;2023-11-19T08:07:28;100816.97;;;10.52;100.00
74075;BME280;62428;51.412;5.432;2023-11-19T08:09:55;100827.44;;;10.53;100.00
74075;BME280;62428;51.412;5.432;2023-11-19T08:12:20;100829.28;;;10.53;100.00
74075;BME280;62428;51.412;5.432;2023-11-19T08:14:45;100830.63;;;10.55;100.00
74075;BME280;62428;51.412;5.432;2023-11-19T08:17:11;100830.63;;;10.55;100.00
74075;BME280;62428;51.412;5.432;2023-11-19T08:19:36;100837.28;;;10.58;100.00
74075;BME280;62428;51.412;5.432;2023-11-19T08:22:01;100830.84;;;10.59;100.00
74075;BME280;62428;51.412;5.432;2023-11-19T08:24:27;100833.22;;;10.61;100.00
74075;BME280;62428;51.412;5.432;2023-11-19T08:26:53;100830.75;;;10.64;100.00
74075;BME280;62428;51.412;5.432;2023-11-19T08:29:19;100827.75;;;10.66;100.00
74075;BME280;62428;51.412;5.432;2023-11-19T08:31:44;100838.22;;;10.67;100.00
74075;BME280;62428;51.412;5.432;2023-11-19T08:34:11;100829.09;;;10.68;100.00
74075;BME280;62428;51.412;5.432;2023-11-19T08:36:37;100833.06;;;10.71;100.00
74075;BME280;62428;51.412;5.432;2023-11-19T08:39:02;100827.41;;;10.72;100.00
74075;BME280;62428;51.412;5.432;2023-11-19T08:41:28;100831.69;;;10.73;100.00
74075;BME280;62428;51.412;5.432;2023-11-19T08:43:53;100820.63;;;10.75;100.00
74075;BME280;62428;51.412;5.432;2023-11-19T08:46:19;100828.41;;;10.76;100.00
74075;BME280;62428;51.412;5.432;2023-11-19T08:48:45;100826.53;;;10.77;100.00
74075;BME280;62428;51.412;5.432;2023-11-19T08:51:11;100832.41;;;10.79;100.00
74075;BME280;62428;51.412;5.432;2023-11-19T08:53:37;100829.94;;;10.83;100.00
74075;BME280;62428;51.412;5.432;2023-11-19T08:56:02;100832.84;;;10.86;100.00
74075;BME280;62428;51.412;5.432;2023-11-19T08:58:28;100833.84;;;10.90;100.00
74075;BME280;62428;51.412;5.432;2023-11-19T09:00:54;100839.44;;;10.94;100.00
74075;BME280;62428;51.412;5.432;2023-11-19T09:03:19;100845.03;;;10.98;100.00
74075;BME280;62428;51.412;5.432;2023-11-19T09:05:45;100835.75;;;11.04;100.00
74075;BME280;62428;51.412;5.432;2023-11-19T09:08:11;100839.16;;;11.09;100.00
74075;BME280;62428;51.412;5.432;2023-11-19T09:10:37;100841.47;;;11.16;100.00
74075;BME280;62428;51.412;5.432;2023-11-19T09:13:02;100844.88;;;11.22;100.00
74075;BME280;62428;51.412;5.432;2023-11-19T09:15:29;100846.91;;;11.30;100.00
74075;BME280;62428;51.412;5.432;2023-11-19T09:17:54;100834.16;;;11.35;100.00
74075;BME280;62428;51.412;5.432;2023-11-19T09:20:19;100833.53;;;11.39;100.00
74075;BME280;62428;51.412;5.432;2023-11-19T09:22:45;100834.88;;;11.41;100.00
74075;BME280;62428;51.412;5.432;2023-11-19T09:25:11;100837.25;;;11.43;100.00
74075;BME280;62428;51.412;5.432;2023-11-19T09:27:36;100839.13;;;11.42;100.00
74075;BME280;62428;51.412;5.432;2023-11-19T09:30:02;100832.97;;;11.42;100.00
74075;BME280;62428;51.412;5.432;2023-11-19T09:32:29;100833.75;;;11.42;100.00
74075;BME280;62428;51.412;5.432;2023-11-19T09:34:54;100834.25;;;11.44;100.00
74075;BME280;62428;51.412;5.432;2023-11-19T09:37:20;100834.44;;;11.48;100.00
74075;BME280;62428;51.412;5.432;2023-11-19T09:39:45;100822.59;;;11.49;100.00
74075;BME280;62428;51.412;5.432;2023-11-19T09:42:11;100826.59;;;11.51;100.00
74075;BME280;62428;51.412;5.432;2023-11-19T09:44:38;100823.31;;;11.54;100.00
74075;BME280;62428;51.412;5.432;2023-11-19T09:47:05;100830.19;;;11.61;100.00
74075;BME280;62428;51.412;5.432;2023-11-19T09:49:31;100832.28;;;11.64;100.00
74075;BME280;62428;51.412;5.432;2023-11-19T09:51:56;100829.00;;;11.67;100.00
74075;BME280;62428;51.412;5.432;2023-11-19T09:54:22;100834.59;;;11.70;100.00
74075;BME280;62428;51.412;5.432;2023-11-19T09:56:48;100820.13;;;11.80;100.00
74075;BME280;62428;51.412;5.432;2023-11-19T09:59:14;100822.81;;;11.80;100.00
74075;BME280;62428;51.412;5.432;2023-11-19T10:01:39;100839.34;;;11.87;100.00
74075;BME280;62428;51.412;5.432;2023-11-19T10:04:06;100829.00;;;11.95;100.00
74075;BME280;62428;51.412;5.432;2023-11-19T10:06:32;100839.59;;;12.05;100.00
74075;BME280;62428;51.412;5.432;2023-11-19T10:08:57;100831.38;;;12.10;100.00
74075;BME280;62428;51.412;5.432;2023-11-19T10:11:24;100816.34;;;12.09;100.00
74075;BME280;62428;51.412;5.432;2023-11-19T10:13:51;100814.13;;;12.11;100.00
74075;BME280;62428;51.412;5.432;2023-11-19T10:16:18;100804.63;;;12.14;100.00
74075;BME280;62428;51.412;5.432;2023-11-19T10:18:48;100813.09;;;12.21;100.00
74075;BME280;62428;51.412;5.432;2023-11-19T10:21:14;100820.28;;;12.25;100.00
74075;BME280;62428;51.412;5.432;2023-11-19T10:23:53;100823.97;;;12.29;100.00
74075;BME280;62428;51.412;5.432;2023-11-19T10:26:19;100821.47;;;12.33;100.00
74075;BME280;62428;51.412;5.432;2023-11-19T10:28:48;100823.84;;;12.35;100.00
74075;BME280;62428;51.412;5.432;2023-11-19T10:31:14;100821.47;;;12.33;100.00
74075;BME280;62428;51.412;5.432;2023-11-19T10:33:40;100823.84;;;12.35;100.00
74075;BME280;62428;51.412;5.432;2023-11-19T10:36:06;100822.88;;;12.30;100.00
74075;BME280;62428;51.412;5.432;2023-11-19T10:38:32;100817.31;;;12.27;100.00
74075;BME280;62428;51.412;5.432;2023-11-19T10:40:57;100822.06;;;12.30;100.00
74075;BME280;62428;51.412;5.432;2023-11-19T10:43:24;100819.38;;;12.30;100.00
74075;BME280;62428;51.412;5.432;2023-11-19T10:45:50;100808.28;;;12.31;100.00
74075;BME280;62428;51.412;5.432;2023-11-19T10:48:16;100819.06;;;12.31;100.00
74075;BME280;62428;51.412;5.432;2023-11-19T10:50:43;100822.75;;;12.36;100.00
74075;BME280;62428;51.412;5.432;2023-11-19T10:53:10;100817.53;;;12.39;100.00
74075;BME280;62428;51.412;5.432;2023-11-19T10:55:38;100819.94;;;12.41;100.00
74075;BME280;62428;51.412;5.432;2023-11-19T10:58:05;100835.22;;;12.45;100.00
74075;BME280;62428;51.412;5.432;2023-11-19T11:00:54;100823.84;;;12.48;100.00
74075;BME280;62428;51.412;5.432;2023-11-19T11:03:22;100822.53;;;12.46;100.00
74075;BME280;62428;51.412;5.432;2023-11-19T11:05:51;100812.88;;;12.45;100.00
74075;BME280;62428;51.412;5.432;2023-11-19T11:08:17;100812.16;;;12.39;100.00
74075;BME280;62428;51.412;5.432;2023-11-19T11:10:45;100818.97;;;12.37;100.00
74075;BME280;62428;51.412;5.432;2023-11-19T11:13:13;100815.59;;;12.31;100.00
74075;BME280;62428;51.412;5.432;2023-11-19T11:15:38;100803.22;;;12.30;100.00
74075;BME280;62428;51.412;5.432;2023-11-19T11:18:06;100807.13;;;12.24;100.00
74075;BME280;62428;51.412;5.432;2023-11-19T11:20:33;100799.66;;;12.21;100.00
74075;BME280;62428;51.412;5.432;2023-11-19T11:28:15;100799.41;;;12.08;100.00
74075;BME280;62428;51.412;5.432;2023-11-19T11:31:06;100811.06;;;12.04;100.00
74075;BME280;62428;51.412;5.432;2023-11-19T11:33:38;100809.88;;;11.96;100.00
74075;BME280;62428;51.412;5.432;2023-11-19T11:38:41;100801.78;;;11.68;100.00
74075;BME280;62428;51.412;5.432;2023-11-19T11:41:24;100786.63;;;11.59;100.00
74075;BME280;62428;51.412;5.432;2023-11-19T11:43:51;100787.53;;;11.54;100.00
74075;BME280;62428;51.412;5.432;2023-11-19T11:49:05;100775.25;;;11.48;100.00
74075;BME280;62428;51.412;5.432;2023-11-19T11:54:08;100764.44;;;11.39;100.00
74075;BME280;62428;51.412;5.432;2023-11-19T11:56:37;100772.78;;;11.38;100.00
74075;BME280;62428;51.412;5.432;2023-11-19T11:59:03;100769.47;;;11.41;100.00
74075;BME280;62428;51.412;5.432;2023-11-19T12:01:29;100785.53;;;11.46;100.00
74075;BME280;62428;51.412;5.432;2023-11-19T12:03:55;100773.59;;;11.52;100.00
74075;BME280;62428;51.412;5.432;2023-11-19T12:06:22;100768.41;;;11.56;100.00
74075;BME280;62428;51.412;5.432;2023-11-19T12:08:47;100771.78;;;11.61;100.00
74075;BME280;62428;51.412;5.432;2023-11-19T12:11:13;100766.91;;;11.63;100.00
74075;BME280;62428;51.412;5.432;2023-11-19T12:13:55;100758.53;;;11.65;100.00
74075;BME280;62428;51.412;5.432;2023-11-19T12:16:23;100750.16;;;11.66;100.00
74075;BME280;62428;51.412;5.432;2023-11-19T12:18:52;100749.06;;;11.67;100.00
74075;BME280;62428;51.412;5.432;2023-11-19T12:21:28;100742.78;;;11.72;100.00
74075;BME280;62428;51.412;5.432;2023-11-19T12:23:55;100745.16;;;11.73;100.00
74075;BME280;62428;51.412;5.432;2023-11-19T12:26:35;100746.47;;;11.76;100.00
74075;BME280;62428;51.412;5.432;2023-11-19T12:29:01;100752.63;;;11.77;100.00
74075;BME280;62428;51.412;5.432;2023-11-19T12:31:29;100749.16;;;11.76;100.00
74075;BME280;62428;51.412;5.432;2023-11-19T12:33:54;100748.38;;;11.76;100.00
74075;BME280;62428;51.412;5.432;2023-11-19T12:36:19;100758.31;;;11.75;100.00
74075;BME280;62428;51.412;5.432;2023-11-19T12:38:45;100764.81;;;11.74;100.00
74075;BME280;62428;51.412;5.432;2023-11-19T12:41:11;100765.31;;;11.76;100.00
74075;BME280;62428;51.412;5.432;2023-11-19T12:43:37;100764.91;;;11.83;100.00
74075;BME280;62428;51.412;5.432;2023-11-19T12:46:16;100769.16;;;11.84;100.00
74075;BME280;62428;51.412;5.432;2023-11-19T12:48:42;100760.50;;;11.87;100.00